Asahikawa Air Base, Japan

2:02 PM JST on July 25, 2016 (GMT +0900)
Asahikawa | | Change Station

Elev 682 ft 43.67 °N, 142.45 °E | Updated 1 hour ago

Partly Cloudy
Partly Cloudy
81 °F
Feels Like 82 °F
N
6
Wind Variable Wind from North

Today
High -- | Low -- °F
--% Chance of Precip.
Yesterday
High -- | Low -- °F
Precip. -- in
Pressure 29.95 in
Visibility 6.2 miles
Clouds Few 3500 ft
Heat Index 82 °F
Dew Point 63 °F
Humidity 54%
Rainfall 0.00 in
Snow Depth Not available.
4:11 AM 7:01 PM
Waning Gibbous, 69% visible
METAR RJEC 250400Z 35005KT 260V050 9999 FEW035 27/17 Q1014
Pressure 29.95 in
Visibility 6.2 miles
Clouds Few 3500 ft
Heat Index 82 °F
Dew Point 63 °F
Humidity 54%
Rainfall 0.00 in
Snow Depth Not available.
4:11 AM 7:01 PM
Waning Gibbous, 69% visible
METAR RJEC 250400Z 35005KT 260V050 9999 FEW035 27/17 Q1014

10-Day Weather Forecast

No radar image for this location.
×

Almanac

Astronomy

Jul. 25, 2016 Rise Set
Actual Time
Civil Twilight
Nautical Twilight
Astronomical Twilight
Moon
Length of Visible Light
Length of Day
Tomorrow will be .
, % of the Moon is Illuminated

Today's Extremes

Country Highs Country Lows

Community

WunderPhotos

Upload Photos

1,927,270 photos uploaded!

WunderBlog® & News

Nearby

Air Quality

  Air Quality AQ Index Pollutant
Not available.

Snow Depth

Station Depth Elevation

Earthquake Activity

City Distance Mag. Time & Date
Minimum magnitude displayed is 2.5.

Coastal Water Temperatures

Place Temperature

Stations

Nearby Weather Stations

Station Location Temp. Windchill Dew Point Humidity Wind Precip. Elev Updated Type